sensor_id;sensor_type;location;lat;lon;timestamp;pressure;altitude;pressure_sealevel;temperature;humidity
33795;BME280;51430;52.242;21.118;2022-10-30T00:01:24;100698.17;;;13.78;94.82
33795;BME280;51430;52.242;21.118;2022-10-30T00:03:51;100692.09;;;13.79;94.84
33795;BME280;51430;52.242;21.118;2022-10-30T00:06:19;100690.81;;;13.80;94.68
33795;BME280;51430;52.242;21.118;2022-10-30T00:08:46;100696.09;;;13.82;94.67
33795;BME280;51430;52.242;21.118;2022-10-30T00:11:31;100698.28;;;13.78;94.53
33795;BME280;51430;52.242;21.118;2022-10-30T00:13:57;100690.81;;;13.78;94.64
33795;BME280;51430;52.242;21.118;2022-10-30T00:16:25;100684.35;;;13.80;94.56
33795;BME280;51430;52.242;21.118;2022-10-30T00:18:52;100685.91;;;13.78;94.77
33795;BME280;51430;52.242;21.118;2022-10-30T00:21:18;100683.80;;;13.80;94.58
33795;BME280;51430;52.242;21.118;2022-10-30T00:24:06;100689.33;;;13.79;94.35
33795;BME280;51430;52.242;21.118;2022-10-30T00:26:33;100687.65;;;13.78;94.37
33795;BME280;51430;52.242;21.118;2022-10-30T00:28:59;100681.59;;;13.79;94.30
33795;BME280;51430;52.242;21.118;2022-10-30T00:31:26;100677.23;;;13.77;94.37
33795;BME280;51430;52.242;21.118;2022-10-30T00:33:53;100671.88;;;13.78;94.34
33795;BME280;51430;52.242;21.118;2022-10-30T00:36:38;100674.43;;;13.74;94.21
33795;BME280;51430;52.242;21.118;2022-10-30T00:39:05;100675.16;;;13.78;94.01
33795;BME280;51430;52.242;21.118;2022-10-30T00:41:32;100677.10;;;13.76;93.95
33795;BME280;51430;52.242;21.118;2022-10-30T00:43:59;100683.30;;;13.82;93.71
33795;BME280;51430;52.242;21.118;2022-10-30T00:46:43;100691.67;;;13.78;93.58
33795;BME280;51430;52.242;21.118;2022-10-30T00:49:17;100688.80;;;13.77;93.72
33795;BME280;51430;52.242;21.118;2022-10-30T00:51:48;100671.40;;;13.75;93.77
33795;BME280;51430;52.242;21.118;2022-10-30T00:54:17;100657.48;;;13.76;93.60
33795;BME280;51430;52.242;21.118;2022-10-30T00:57:04;100655.85;;;13.75;93.60
33795;BME280;51430;52.242;21.118;2022-10-30T00:59:37;100658.27;;;13.77;93.50
33795;BME280;51430;52.242;21.118;2022-10-30T01:02:04;100656.96;;;13.78;93.37
33795;BME280;51430;52.242;21.118;2022-10-30T01:04:34;100652.42;;;13.76;93.43
33795;BME280;51430;52.242;21.118;2022-10-30T01:07:11;100648.50;;;13.79;93.29
33795;BME280;51430;52.242;21.118;2022-10-30T01:09:39;100650.80;;;13.78;93.12
33795;BME280;51430;52.242;21.118;2022-10-30T01:12:06;100663.86;;;13.79;93.10
33795;BME280;51430;52.242;21.118;2022-10-30T01:14:37;100672.86;;;13.83;93.10
33795;BME280;51430;52.242;21.118;2022-10-30T01:20:24;100679.30;;;13.83;92.99
33795;BME280;51430;52.242;21.118;2022-10-30T01:23:22;100685.38;;;13.76;93.27
33795;BME280;51430;52.242;21.118;2022-10-30T01:31:56;100687.93;;;13.83;93.39
33795;BME280;51430;52.242;21.118;2022-10-30T01:34:36;100684.23;;;13.83;93.17
33795;BME280;51430;52.242;21.118;2022-10-30T01:37:16;100680.98;;;13.86;92.85
33795;BME280;51430;52.242;21.118;2022-10-30T01:39:46;100668.09;;;13.87;93.05
33795;BME280;51430;52.242;21.118;2022-10-30T01:50:46;100670.86;;;13.79;92.96
33795;BME280;51430;52.242;21.118;2022-10-30T01:55:59;100665.23;;;13.78;93.26
33795;BME280;51430;52.242;21.118;2022-10-30T02:01:34;100665.36;;;13.72;93.14
33795;BME280;51430;52.242;21.118;2022-10-30T02:04:02;100669.45;;;13.71;93.13
33795;BME280;51430;52.242;21.118;2022-10-30T02:06:35;100668.14;;;13.72;93.20
33795;BME280;51430;52.242;21.118;2022-10-30T02:09:21;100669.82;;;13.69;93.12
33795;BME280;51430;52.242;21.118;2022-10-30T02:11:48;100674.80;;;13.75;93.19
33795;BME280;51430;52.242;21.118;2022-10-30T02:14:29;100675.15;;;13.79;92.85
33795;BME280;51430;52.242;21.118;2022-10-30T02:16:59;100678.31;;;13.76;92.71
33795;BME280;51430;52.242;21.118;2022-10-30T02:19:28;100682.27;;;13.79;92.97
33795;BME280;51430;52.242;21.118;2022-10-30T02:21:55;100683.28;;;13.82;92.96
33795;BME280;51430;52.242;21.118;2022-10-30T02:24:21;100678.92;;;13.84;92.73
33795;BME280;51430;52.242;21.118;2022-10-30T02:26:48;100680.88;;;13.85;92.77
33795;BME280;51430;52.242;21.118;2022-10-30T02:29:33;100686.53;;;13.85;92.83
33795;BME280;51430;52.242;21.118;2022-10-30T02:32:00;100692.27;;;13.85;92.76
33795;BME280;51430;52.242;21.118;2022-10-30T02:34:27;100691.69;;;13.86;92.71
33795;BME280;51430;52.242;21.118;2022-10-30T02:36:53;100691.50;;;13.84;92.98
33795;BME280;51430;52.242;21.118;2022-10-30T02:39:20;100690.11;;;13.82;93.00
33795;BME280;51430;52.242;21.118;2022-10-30T02:41:47;100683.88;;;13.81;93.27
33795;BME280;51430;52.242;21.118;2022-10-30T02:44:14;100687.31;;;13.80;93.55
33795;BME280;51430;52.242;21.118;2022-10-30T02:46:41;100684.66;;;13.80;93.54
33795;BME280;51430;52.242;21.118;2022-10-30T02:49:08;100687.21;;;13.79;93.72
33795;BME280;51430;52.242;21.118;2022-10-30T02:51:35;100688.96;;;13.77;94.00
33795;BME280;51430;52.242;21.118;2022-10-30T02:54:02;100683.64;;;13.74;94.03
33795;BME280;51430;52.242;21.118;2022-10-30T02:56:29;100683.44;;;13.72;94.23
33795;BME280;51430;52.242;21.118;2022-10-30T02:58:55;100690.55;;;13.73;94.36
33795;BME280;51430;52.242;21.118;2022-10-30T03:01:40;100691.32;;;13.69;94.37
33795;BME280;51430;52.242;21.118;2022-10-30T03:04:08;100696.33;;;13.70;94.34
33795;BME280;51430;52.242;21.118;2022-10-30T03:06:34;100692.60;;;13.69;94.39
33795;BME280;51430;52.242;21.118;2022-10-30T03:09:19;100689.88;;;13.64;94.47
33795;BME280;51430;52.242;21.118;2022-10-30T03:11:46;100691.73;;;13.64;94.45
33795;BME280;51430;52.242;21.118;2022-10-30T03:14:13;100696.33;;;13.66;94.74
33795;BME280;51430;52.242;21.118;2022-10-30T03:16:40;100697.93;;;13.66;94.60
33795;BME280;51430;52.242;21.118;2022-10-30T03:19:06;100699.35;;;13.63;94.60
33795;BME280;51430;52.242;21.118;2022-10-30T03:21:53;100703.81;;;13.58;94.68
33795;BME280;51430;52.242;21.118;2022-10-30T03:24:20;100706.84;;;13.58;94.79
33795;BME280;51430;52.242;21.118;2022-10-30T03:26:47;100707.86;;;13.56;95.01
33795;BME280;51430;52.242;21.118;2022-10-30T03:29:32;100710.54;;;13.51;95.14
33795;BME280;51430;52.242;21.118;2022-10-30T03:31:58;100706.21;;;13.48;95.12
33795;BME280;51430;52.242;21.118;2022-10-30T03:34:26;100704.02;;;13.47;95.29
33795;BME280;51430;52.242;21.118;2022-10-30T03:36:52;100711.65;;;13.48;95.33
33795;BME280;51430;52.242;21.118;2022-10-30T03:39:19;100707.36;;;13.49;95.35
33795;BME280;51430;52.242;21.118;2022-10-30T03:41:46;100711.46;;;13.49;95.30
33795;BME280;51430;52.242;21.118;2022-10-30T03:44:13;100710.90;;;13.49;95.29
33795;BME280;51430;52.242;21.118;2022-10-30T03:46:39;100706.09;;;13.50;95.34
33795;BME280;51430;52.242;21.118;2022-10-30T03:49:06;100707.36;;;13.52;95.17
33795;BME280;51430;52.242;21.118;2022-10-30T03:51:33;100708.48;;;13.50;95.22
33795;BME280;51430;52.242;21.118;2022-10-30T03:53:59;100705.69;;;13.50;95.39
33795;BME280;51430;52.242;21.118;2022-10-30T03:56:26;100710.24;;;13.53;95.33
33795;BME280;51430;52.242;21.118;2022-10-30T03:58:52;100706.20;;;13.53;95.48
33795;BME280;51430;52.242;21.118;2022-10-30T04:01:19;100709.51;;;13.51;95.58
33795;BME280;51430;52.242;21.118;2022-10-30T04:03:46;100707.67;;;13.50;95.77
33795;BME280;51430;52.242;21.118;2022-10-30T04:06:13;100703.63;;;13.48;95.92
33795;BME280;51430;52.242;21.118;2022-10-30T04:08:40;100702.14;;;13.47;96.04
33795;BME280;51430;52.242;21.118;2022-10-30T04:11:25;100705.66;;;13.42;96.34
33795;BME280;51430;52.242;21.118;2022-10-30T04:13:51;100700.34;;;13.41;96.53
33795;BME280;51430;52.242;21.118;2022-10-30T04:16:18;100699.55;;;13.40;96.53
33795;BME280;51430;52.242;21.118;2022-10-30T04:18:45;100696.83;;;13.41;96.72
33795;BME280;51430;52.242;21.118;2022-10-30T04:21:30;100700.90;;;13.39;96.74
33795;BME280;51430;52.242;21.118;2022-10-30T04:23:56;100695.80;;;13.41;96.66
33795;BME280;51430;52.242;21.118;2022-10-30T04:26:23;100693.08;;;13.42;96.59
33795;BME280;51430;52.242;21.118;2022-10-30T04:28:50;100692.14;;;13.47;96.42
33795;BME280;51430;52.242;21.118;2022-10-30T04:31:17;100693.77;;;13.46;96.24
33795;BME280;51430;52.242;21.118;2022-10-30T04:33:43;100690.52;;;13.44;96.30
33795;BME280;51430;52.242;21.118;2022-10-30T04:36:10;100685.95;;;13.44;96.54
33795;BME280;51430;52.242;21.118;2022-10-30T04:38:55;100678.72;;;13.42;96.10
33795;BME280;51430;52.242;21.118;2022-10-30T04:41:22;100679.42;;;13.46;95.88
33795;BME280;51430;52.242;21.118;2022-10-30T04:43:49;100679.23;;;13.48;95.66
33795;BME280;51430;52.242;21.118;2022-10-30T04:46:15;100675.22;;;13.52;95.55
33795;BME280;51430;52.242;21.118;2022-10-30T04:49:00;100675.77;;;13.50;95.45
33795;BME280;51430;52.242;21.118;2022-10-30T04:51:27;100673.91;;;13.52;95.32
33795;BME280;51430;52.242;21.118;2022-10-30T04:53:54;100669.80;;;13.52;94.84
33795;BME280;51430;52.242;21.118;2022-10-30T04:56:20;100666.73;;;13.53;94.33
33795;BME280;51430;52.242;21.118;2022-10-30T04:58:47;100672.29;;;13.56;94.33
33795;BME280;51430;52.242;21.118;2022-10-30T05:01:14;100673.52;;;13.58;94.11
33795;BME280;51430;52.242;21.118;2022-10-30T05:03:41;100681.84;;;13.59;94.08
33795;BME280;51430;52.242;21.118;2022-10-30T05:06:28;100687.91;;;13.58;94.01
33795;BME280;51430;52.242;21.118;2022-10-30T05:08:56;100690.17;;;13.60;94.05
33795;BME280;51430;52.242;21.118;2022-10-30T05:11:23;100690.24;;;13.61;94.10
33795;BME280;51430;52.242;21.118;2022-10-30T05:13:50;100690.55;;;13.62;93.96
33795;BME280;51430;52.242;21.118;2022-10-30T05:16:16;100691.17;;;13.61;93.79
33795;BME280;51430;52.242;21.118;2022-10-30T05:18:43;100701.02;;;13.62;93.88
33795;BME280;51430;52.242;21.118;2022-10-30T05:21:11;100703.04;;;13.63;94.15
33795;BME280;51430;52.242;21.118;2022-10-30T05:23:37;100704.29;;;13.63;94.27
33795;BME280;51430;52.242;21.118;2022-10-30T05:26:04;100705.54;;;13.61;94.29
33795;BME280;51430;52.242;21.118;2022-10-30T05:28:49;100710.85;;;13.58;94.20
33795;BME280;51430;52.242;21.118;2022-10-30T05:31:16;100715.39;;;13.60;93.93
33795;BME280;51430;52.242;21.118;2022-10-30T05:33:44;100724.16;;;13.60;93.61
33795;BME280;51430;52.242;21.118;2022-10-30T05:36:13;100722.17;;;13.60;93.75
33795;BME280;51430;52.242;21.118;2022-10-30T05:38:40;100723.55;;;13.63;93.49
33795;BME280;51430;52.242;21.118;2022-10-30T05:41:06;100720.81;;;13.62;93.41
33795;BME280;51430;52.242;21.118;2022-10-30T05:43:46;100723.46;;;13.62;93.47
33795;BME280;51430;52.242;21.118;2022-10-30T05:46:12;100721.50;;;13.62;93.65
33795;BME280;51430;52.242;21.118;2022-10-30T05:48:39;100712.64;;;13.64;93.52
33795;BME280;51430;52.242;21.118;2022-10-30T05:51:24;100714.46;;;13.65;93.47
33795;BME280;51430;52.242;21.118;2022-10-30T05:53:51;100708.85;;;13.65;93.31
33795;BME280;51430;52.242;21.118;2022-10-30T05:56:18;100712.56;;;13.69;93.12
33795;BME280;51430;52.242;21.118;2022-10-30T05:58:49;100717.66;;;13.73;93.11
33795;BME280;51430;52.242;21.118;2022-10-30T06:01:35;100715.61;;;13.75;92.88
33795;BME280;51430;52.242;21.118;2022-10-30T06:04:02;100713.02;;;13.76;92.93
33795;BME280;51430;52.242;21.118;2022-10-30T06:06:29;100711.36;;;13.79;92.79
33795;BME280;51430;52.242;21.118;2022-10-30T06:08:56;100713.06;;;13.80;92.62
33795;BME280;51430;52.242;21.118;2022-10-30T06:11:41;100710.26;;;13.82;92.66
33795;BME280;51430;52.242;21.118;2022-10-30T06:14:08;100711.02;;;13.90;92.57
33795;BME280;51430;52.242;21.118;2022-10-30T06:16:35;100709.30;;;13.95;92.28
33795;BME280;51430;52.242;21.118;2022-10-30T06:19:20;100707.91;;;13.95;91.32
33795;BME280;51430;52.242;21.118;2022-10-30T06:21:47;100714.15;;;13.98;90.97
33795;BME280;51430;52.242;21.118;2022-10-30T06:24:13;100712.59;;;14.02;90.78
33795;BME280;51430;52.242;21.118;2022-10-30T06:26:41;100715.81;;;14.09;90.64
33795;BME280;51430;52.242;21.118;2022-10-30T06:29:08;100715.70;;;14.15;90.22
33795;BME280;51430;52.242;21.118;2022-10-30T06:31:34;100707.36;;;14.16;89.60
33795;BME280;51430;52.242;21.118;2022-10-30T06:34:01;100708.02;;;14.23;89.20
33795;BME280;51430;52.242;21.118;2022-10-30T06:36:28;100708.85;;;14.29;88.57
33795;BME280;51430;52.242;21.118;2022-10-30T06:39:13;100710.59;;;14.32;88.35
33795;BME280;51430;52.242;21.118;2022-10-30T06:41:41;100714.61;;;14.38;88.13
33795;BME280;51430;52.242;21.118;2022-10-30T06:44:08;100711.65;;;14.45;87.76
33795;BME280;51430;52.242;21.118;2022-10-30T06:46:35;100714.19;;;14.55;87.33
33795;BME280;51430;52.242;21.118;2022-10-30T06:49:26;100722.97;;;14.60;86.72
33795;BME280;51430;52.242;21.118;2022-10-30T06:51:59;100733.64;;;14.67;86.72
33795;BME280;51430;52.242;21.118;2022-10-30T06:54:25;100736.58;;;14.73;87.00
33795;BME280;51430;52.242;21.118;2022-10-30T06:56:52;100739.58;;;14.77;86.15
33795;BME280;51430;52.242;21.118;2022-10-30T06:59:19;100745.28;;;14.82;85.96
33795;BME280;51430;52.242;21.118;2022-10-30T07:02:04;100750.98;;;14.85;86.10
33795;BME280;51430;52.242;21.118;2022-10-30T07:04:34;100746.61;;;14.91;85.82
33795;BME280;51430;52.242;21.118;2022-10-30T07:07:01;100748.77;;;14.94;85.23
33795;BME280;51430;52.242;21.118;2022-10-30T07:09:29;100741.54;;;14.99;84.67
33795;BME280;51430;52.242;21.118;2022-10-30T07:11:55;100737.23;;;15.07;84.09
33795;BME280;51430;52.242;21.118;2022-10-30T07:14:40;100736.63;;;15.06;82.94
33795;BME280;51430;52.242;21.118;2022-10-30T07:17:07;100739.39;;;15.13;82.77
33795;BME280;51430;52.242;21.118;2022-10-30T07:19:34;100738.05;;;15.28;82.69
33795;BME280;51430;52.242;21.118;2022-10-30T07:22:01;100738.30;;;15.41;81.55
33795;BME280;51430;52.242;21.118;2022-10-30T07:24:28;100749.64;;;15.43;80.65
33795;BME280;51430;52.242;21.118;2022-10-30T07:26:55;100755.66;;;15.49;81.20
33795;BME280;51430;52.242;21.118;2022-10-30T07:29:22;100758.05;;;15.52;81.01
33795;BME280;51430;52.242;21.118;2022-10-30T07:31:49;100757.50;;;15.48;81.06
33795;BME280;51430;52.242;21.118;2022-10-30T07:34:28;100755.18;;;15.40;81.83
33795;BME280;51430;52.242;21.118;2022-10-30T07:36:55;100753.33;;;15.42;82.14
33795;BME280;51430;52.242;21.118;2022-10-30T07:39:22;100747.00;;;15.42;82.31
33795;BME280;51430;52.242;21.118;2022-10-30T07:41:49;100749.91;;;15.54;82.43
33795;BME280;51430;52.242;21.118;2022-10-30T07:44:16;100743.66;;;15.63;82.24
33795;BME280;51430;52.242;21.118;2022-10-30T07:46:44;100741.34;;;15.75;82.12
33795;BME280;51430;52.242;21.118;2022-10-30T07:49:10;100737.31;;;15.81;82.01
33795;BME280;51430;52.242;21.118;2022-10-30T07:51:37;100734.77;;;15.85;81.98
33795;BME280;51430;52.242;21.118;2022-10-30T07:54:04;100730.68;;;15.69;82.31
33795;BME280;51430;52.242;21.118;2022-10-30T07:56:31;100734.98;;;15.66;82.89
33795;BME280;51430;52.242;21.118;2022-10-30T07:58:57;100738.47;;;15.72;82.60
33795;BME280;51430;52.242;21.118;2022-10-30T08:01:24;100742.52;;;15.78;82.50
33795;BME280;51430;52.242;21.118;2022-10-30T08:03:51;100748.55;;;15.92;82.84
33795;BME280;51430;52.242;21.118;2022-10-30T08:06:36;100750.65;;;16.04;82.31
33795;BME280;51430;52.242;21.118;2022-10-30T08:09:21;100748.80;;;16.20;81.85
33795;BME280;51430;52.242;21.118;2022-10-30T08:11:48;100747.94;;;16.31;80.74
33795;BME280;51430;52.242;21.118;2022-10-30T08:14:33;100738.76;;;16.27;79.95
33795;BME280;51430;52.242;21.118;2022-10-30T08:17:00;100737.77;;;16.19;80.00
33795;BME280;51430;52.242;21.118;2022-10-30T08:19:27;100747.52;;;16.37;80.41
33795;BME280;51430;52.242;21.118;2022-10-30T08:22:12;100753.66;;;16.67;79.97
33795;BME280;51430;52.242;21.118;2022-10-30T08:24:39;100760.67;;;16.94;78.39
33795;BME280;51430;52.242;21.118;2022-10-30T08:27:06;100762.83;;;17.25;76.99
33795;BME280;51430;52.242;21.118;2022-10-30T08:29:32;100757.71;;;17.32;75.37
33795;BME280;51430;52.242;21.118;2022-10-30T08:32:02;100759.92;;;17.45;75.35
33795;BME280;51430;52.242;21.118;2022-10-30T08:34:47;100760.56;;;17.50;73.58
33795;BME280;51430;52.242;21.118;2022-10-30T08:37:14;100753.28;;;17.59;74.22
33795;BME280;51430;52.242;21.118;2022-10-30T08:39:42;100753.76;;;17.67;74.07
33795;BME280;51430;52.242;21.118;2022-10-30T08:42:10;100757.56;;;17.71;73.91
33795;BME280;51430;52.242;21.118;2022-10-30T08:44:36;100758.48;;;17.69;73.37
33795;BME280;51430;52.242;21.118;2022-10-30T08:47:03;100753.84;;;17.68;73.63
33795;BME280;51430;52.242;21.118;2022-10-30T08:49:48;100759.05;;;17.63;73.41
33795;BME280;51430;52.242;21.118;2022-10-30T08:52:33;100760.40;;;17.46;74.17
33795;BME280;51430;52.242;21.118;2022-10-30T08:55:18;100758.44;;;17.46;74.11
33795;BME280;51430;52.242;21.118;2022-10-30T08:58:03;100756.53;;;17.13;74.80
33795;BME280;51430;52.242;21.118;2022-10-30T09:00:51;100748.88;;;17.14;75.17
33795;BME280;51430;52.242;21.118;2022-10-30T09:03:24;100752.01;;;17.17;75.03
33795;BME280;51430;52.242;21.118;2022-10-30T09:05:51;100747.05;;;17.02;74.98
33795;BME280;51430;52.242;21.118;2022-10-30T09:08:18;100746.41;;;16.89;75.57
33795;BME280;51430;52.242;21.118;2022-10-30T09:10:45;100742.14;;;16.95;76.13
33795;BME280;51430;52.242;21.118;2022-10-30T09:13:12;100746.09;;;16.92;75.85
33795;BME280;51430;52.242;21.118;2022-10-30T09:15:38;100752.85;;;17.02;76.11
33795;BME280;51430;52.242;21.118;2022-10-30T09:18:05;100753.38;;;17.24;75.63
33795;BME280;51430;52.242;21.118;2022-10-30T09:20:32;100751.08;;;17.44;75.06
33795;BME280;51430;52.242;21.118;2022-10-30T09:22:59;100750.96;;;17.54;74.73
33795;BME280;51430;52.242;21.118;2022-10-30T09:25:27;100748.39;;;17.64;74.59
33795;BME280;51430;52.242;21.118;2022-10-30T09:27:54;100750.45;;;17.54;74.00
33795;BME280;51430;52.242;21.118;2022-10-30T09:30:21;100748.02;;;17.59;74.42
33795;BME280;51430;52.242;21.118;2022-10-30T09:33:06;100754.61;;;17.47;74.64
33795;BME280;51430;52.242;21.118;2022-10-30T09:35:32;100758.67;;;17.24;74.90
33795;BME280;51430;52.242;21.118;2022-10-30T09:38:17;100763.19;;;17.01;75.69
33795;BME280;51430;52.242;21.118;2022-10-30T09:50:05;100766.42;;;17.71;72.96
33795;BME280;51430;52.242;21.118;2022-10-30T09:53:02;100771.77;;;18.41;70.97
33795;BME280;51430;52.242;21.118;2022-10-30T09:56:18;100769.89;;;18.83;68.11
33795;BME280;51430;52.242;21.118;2022-10-30T10:01:41;100783.27;;;19.96;64.38
33795;BME280;51430;52.242;21.118;2022-10-30T10:06:55;100783.06;;;21.52;58.11
33795;BME280;51430;52.242;21.118;2022-10-30T10:09:25;100773.52;;;21.90;56.39
33795;BME280;51430;52.242;21.118;2022-10-30T10:12:09;100772.73;;;23.60;52.77
33795;BME280;51430;52.242;21.118;2022-10-30T10:14:57;100781.39;;;25.44;47.97
33795;BME280;51430;52.242;21.118;2022-10-30T10:17:35;100779.70;;;26.11;45.99
33795;BME280;51430;52.242;21.118;2022-10-30T10:20:10;100785.18;;;25.55;45.30
33795;BME280;51430;52.242;21.118;2022-10-30T10:22:48;100780.00;;;24.79;47.00
33795;BME280;51430;52.242;21.118;2022-10-30T10:25:26;100769.02;;;24.31;47.09
33795;BME280;51430;52.242;21.118;2022-10-30T10:30:52;100775.77;;;25.05;46.89
33795;BME280;51430;52.242;21.118;2022-10-30T10:38:52;100779.79;;;26.08;42.04
33795;BME280;51430;52.242;21.118;2022-10-30T10:44:22;100787.23;;;26.68;40.03
33795;BME280;51430;52.242;21.118;2022-10-30T10:50:47;100767.13;;;23.54;45.32
33795;BME280;51430;52.242;21.118;2022-10-30T10:53:52;100761.55;;;22.38;46.92
33795;BME280;51430;52.242;21.118;2022-10-30T10:56:38;100766.77;;;21.44;49.68
33795;BME280;51430;52.242;21.118;2022-10-30T10:59:15;100762.88;;;20.90;50.60
33795;BME280;51430;52.242;21.118;2022-10-30T11:04:36;100750.30;;;20.43;53.97
33795;BME280;51430;52.242;21.118;2022-10-30T11:09:44;100755.20;;;20.94;50.46
33795;BME280;51430;52.242;21.118;2022-10-30T11:12:23;100759.84;;;22.94;46.53
33795;BME280;51430;52.242;21.118;2022-10-30T11:14:51;100762.51;;;24.86;42.69
33795;BME280;51430;52.242;21.118;2022-10-30T11:17:31;100761.23;;;26.17;40.58
33795;BME280;51430;52.242;21.118;2022-10-30T11:20:15;100762.70;;;27.54;38.42
33795;BME280;51430;52.242;21.118;2022-10-30T11:22:48;100769.33;;;29.07;35.97
33795;BME280;51430;52.242;21.118;2022-10-30T11:25:24;100770.92;;;29.92;34.36
33795;BME280;51430;52.242;21.118;2022-10-30T11:28:03;100763.50;;;30.69;32.78
33795;BME280;51430;52.242;21.118;2022-10-30T11:30:31;100767.14;;;30.76;31.68
33795;BME280;51430;52.242;21.118;2022-10-30T11:33:21;100774.46;;;29.37;32.17
33795;BME280;51430;52.242;21.118;2022-10-30T11:35:50;100764.65;;;28.64;33.12
33795;BME280;51430;52.242;21.118;2022-10-30T11:38:19;100768.40;;;29.47;33.15
33795;BME280;51430;52.242;21.118;2022-10-30T11:40:50;100766.75;;;29.94;32.51
33795;BME280;51430;52.242;21.118;2022-10-30T11:43:21;100767.77;;;30.21;32.15
33795;BME280;51430;52.242;21.118;2022-10-30T11:45:52;100770.95;;;30.73;31.05
33795;BME280;51430;52.242;21.118;2022-10-30T11:48:28;100772.08;;;30.99;30.46
33795;BME280;51430;52.242;21.118;2022-10-30T11:51:00;100770.38;;;31.23;30.33
33795;BME280;51430;52.242;21.118;2022-10-30T11:53:47;100770.70;;;31.23;29.20
33795;BME280;51430;52.242;21.118;2022-10-30T11:56:19;100769.88;;;31.00;29.34
33795;BME280;51430;52.242;21.118;2022-10-30T11:58:50;100777.23;;;30.84;29.03
33795;BME280;51430;52.242;21.118;2022-10-30T12:01:22;100776.56;;;29.66;31.13
33795;BME280;51430;52.242;21.118;2022-10-30T12:03:50;100768.91;;;30.82;30.03
33795;BME280;51430;52.242;21.118;2022-10-30T12:09:07;100763.36;;;31.18;28.94
33795;BME280;51430;52.242;21.118;2022-10-30T12:11:37;100755.70;;;30.57;29.14
33795;BME280;51430;52.242;21.118;2022-10-30T12:14:05;100746.44;;;28.76;31.95
33795;BME280;51430;52.242;21.118;2022-10-30T12:16:32;100746.88;;;27.92;32.98
33795;BME280;51430;52.242;21.118;2022-10-30T12:19:20;100743.15;;;28.06;33.45
33795;BME280;51430;52.242;21.118;2022-10-30T12:21:50;100744.90;;;28.69;32.83
33795;BME280;51430;52.242;21.118;2022-10-30T12:24:34;100743.71;;;28.90;31.71
33795;BME280;51430;52.242;21.118;2022-10-30T12:27:04;100737.70;;;28.74;32.04
33795;BME280;51430;52.242;21.118;2022-10-30T12:32:49;100732.56;;;26.64;35.07
33795;BME280;51430;52.242;21.118;2022-10-30T12:35:24;100732.55;;;25.08;37.02
33795;BME280;51430;52.242;21.118;2022-10-30T12:37:58;100731.11;;;24.21;38.96
33795;BME280;51430;52.242;21.118;2022-10-30T12:40:29;100723.97;;;25.00;37.98
33795;BME280;51430;52.242;21.118;2022-10-30T12:43:01;100731.09;;;25.93;37.02
33795;BME280;51430;52.242;21.118;2022-10-30T12:45:41;100724.41;;;25.93;36.89
33795;BME280;51430;52.242;21.118;2022-10-30T12:48:23;100728.33;;;24.87;38.15
33795;BME280;51430;52.242;21.118;2022-10-30T12:51:03;100726.07;;;23.91;40.01
33795;BME280;51430;52.242;21.118;2022-10-30T12:56:25;100711.67;;;22.17;43.52
33795;BME280;51430;52.242;21.118;2022-10-30T13:04:36;100702.23;;;20.89;46.42
33795;BME280;51430;52.242;21.118;2022-10-30T13:10:04;100694.71;;;19.95;48.63
33795;BME280;51430;52.242;21.118;2022-10-30T13:13:00;100692.22;;;19.97;49.97
33795;BME280;51430;52.242;21.118;2022-10-30T13:15:32;100693.71;;;20.01;50.96
33795;BME280;51430;52.242;21.118;2022-10-30T13:18:16;100696.05;;;19.99;51.12
33795;BME280;51430;52.242;21.118;2022-10-30T13:24:20;100684.56;;;19.56;50.56
33795;BME280;51430;52.242;21.118;2022-10-30T13:27:20;100686.13;;;19.36;51.53
33795;BME280;51430;52.242;21.118;2022-10-30T13:30:14;100685.84;;;19.16;51.26
33795;BME280;51430;52.242;21.118;2022-10-30T13:43:36;100679.61;;;18.45;54.15
33795;BME280;51430;52.242;21.118;2022-10-30T14:01:03;100680.59;;;18.05;55.77
33795;BME280;51430;52.242;21.118;2022-10-30T14:03:42;100676.89;;;17.98;55.69
33795;BME280;51430;52.242;21.118;2022-10-30T14:06:46;100675.02;;;17.94;55.42
33795;BME280;51430;52.242;21.118;2022-10-30T14:09:34;100673.69;;;17.79;55.63
33795;BME280;51430;52.242;21.118;2022-10-30T14:15:35;100683.19;;;17.58;57.50
33795;BME280;51430;52.242;21.118;2022-10-30T14:20:45;100675.23;;;17.50;57.13
33795;BME280;51430;52.242;21.118;2022-10-30T14:28:33;100661.77;;;17.15;58.01
33795;BME280;51430;52.242;21.118;2022-10-30T15:19:05;100660.70;;;15.88;65.22
33795;BME280;51430;52.242;21.118;2022-10-30T15:21:53;100660.92;;;15.91;65.59
33795;BME280;51430;52.242;21.118;2022-10-30T15:24:24;100663.02;;;15.99;65.31
33795;BME280;51430;52.242;21.118;2022-10-30T15:27:00;100666.61;;;15.98;65.50
33795;BME280;51430;52.242;21.118;2022-10-30T15:29:32;100667.05;;;16.01;65.59
33795;BME280;51430;52.242;21.118;2022-10-30T15:32:17;100662.45;;;16.05;65.72
33795;BME280;51430;52.242;21.118;2022-10-30T15:35:08;100664.52;;;16.07;66.07
33795;BME280;51430;52.242;21.118;2022-10-30T15:38:01;100664.96;;;16.08;66.20
33795;BME280;51430;52.242;21.118;2022-10-30T15:40:30;100667.09;;;16.04;66.33
33795;BME280;51430;52.242;21.118;2022-10-30T15:43:02;100662.90;;;16.01;66.28
33795;BME280;51430;52.242;21.118;2022-10-30T15:45:32;100669.13;;;15.99;66.45
33795;BME280;51430;52.242;21.118;2022-10-30T15:51:02;100667.88;;;16.01;66.89
33795;BME280;51430;52.242;21.118;2022-10-30T15:56:30;100677.73;;;15.94;67.75
33795;BME280;51430;52.242;21.118;2022-10-30T15:59:04;100681.73;;;15.96;67.99